Time;durP1;ratioP1;P1;durP2;ratioP2;P2;SDS_P1;SDS_P2;PMS_P1;PMS_P2;Temp;Humidity;BMP_temperature;BMP_pressure;BME280_temperature;BME280_humidity;BME280_pressure;Samples;Min_cycle;Max_cycle;Signal;HPM_P1;HPM_P2
2023/02/03 00:00:53;;;;;;;0.20;0.20;;;;;;;7.41;100.00;101025.94;4927609;29;20119;-66
2023/02/03 00:03:18;;;;;;;0.45;0.45;;;;;;;7.19;100.00;101010.91;4915312;29;20412;-67
2023/02/03 00:05:45;;;;;;;0.20;0.20;;;;;;;7.24;100.00;101002.69;4912033;29;20036;-66
2023/02/03 00:08:12;;;;;;;0.20;0.20;;;;;;;7.08;100.00;100990.94;4913180;29;20036;-66
2023/02/03 00:10:38;;;;;;;0.20;0.20;;;;;;;7.13;100.00;100998.81;4911518;29;20036;-66
2023/02/03 00:13:04;;;;;;;0.20;0.20;;;;;;;7.22;100.00;101002.22;4914196;29;20060;-67
2023/02/03 00:15:30;;;;;;;0.20;0.20;;;;;;;7.38;100.00;100994.41;4924368;29;20064;-67
2023/02/03 00:17:55;;;;;;;0.20;0.20;;;;;;;7.45;100.00;100991.25;4915743;29;20032;-66
2023/02/03 00:20:21;;;;;;;0.20;0.20;;;;;;;7.54;100.00;100992.75;4920682;29;20035;-67
2023/02/03 00:22:46;;;;;;;0.20;0.20;;;;;;;7.72;100.00;100985.38;4924773;29;20043;-66
2023/02/03 00:25:12;;;;;;;0.20;0.20;;;;;;;7.67;100.00;100978.31;4904009;29;20036;-66
2023/02/03 00:27:37;;;;;;;0.20;0.20;;;;;;;7.47;100.00;100976.38;4910478;29;20035;-66
2023/02/03 00:30:03;;;;;;;0.10;0.10;;;;;;;7.68;100.00;100969.16;4912467;29;20111;-66
2023/02/03 00:32:29;;;;;;;0.20;0.20;;;;;;;7.64;100.00;100970.13;4911951;29;20043;-66
2023/02/03 00:34:54;;;;;;;0.20;0.20;;;;;;;7.71;100.00;100978.44;4913545;29;20039;-66
2023/02/03 00:37:21;;;;;;;0.20;0.20;;;;;;;7.79;100.00;100974.91;4923569;29;20107;-66
2023/02/03 00:39:47;;;;;;;0.20;0.20;;;;;;;7.82;100.00;100961.63;4927632;29;20036;-66
2023/02/03 00:42:13;;;;;;;0.20;0.20;;;;;;;7.90;100.00;100960.75;4929883;29;20044;-67
2023/02/03 00:44:38;;;;;;;0.20;0.20;;;;;;;7.83;100.00;100962.41;4927882;29;20032;-66
2023/02/03 00:47:04;;;;;;;0.20;0.20;;;;;;;7.95;100.00;100949.84;4950022;29;20042;-66
2023/02/03 00:49:30;;;;;;;0.30;0.30;;;;;;;7.93;100.00;100956.66;4923338;29;20020;-66
2023/02/03 00:51:55;;;;;;;0.20;0.20;;;;;;;7.93;100.00;100940.56;4914048;29;20043;-66
2023/02/03 00:54:21;;;;;;;0.20;0.20;;;;;;;8.17;100.00;100951.38;4933575;29;20028;-67
2023/02/03 00:56:46;;;;;;;0.20;0.20;;;;;;;8.06;100.00;100942.16;4915976;29;20040;-66
2023/02/03 00:59:12;;;;;;;0.20;0.20;;;;;;;8.10;100.00;100927.00;4916042;29;20028;-66
2023/02/03 01:01:37;;;;;;;0.20;0.20;;;;;;;8.15;100.00;100926.75;4926665;29;20063;-66
2023/02/03 01:04:03;;;;;;;0.30;0.30;;;;;;;8.20;100.00;100931.94;4913259;29;20126;-67
2023/02/03 01:06:29;;;;;;;0.20;0.20;;;;;;;8.15;100.00;100927.56;4915827;29;20040;-66
2023/02/03 01:08:55;;;;;;;0.20;0.20;;;;;;;8.31;100.00;100921.59;4932601;29;20466;-66
2023/02/03 01:11:24;;;;;;;0.13;0.13;;;;;;;8.43;100.00;100919.72;4937055;28;20120;-66
2023/02/03 01:13:52;;;;;;;0.20;0.20;;;;;;;8.25;100.00;100907.59;4899306;29;20043;-67
2023/02/03 01:16:19;;;;;;;0.20;0.20;;;;;;;8.51;100.00;100907.31;4914537;29;20044;-66
2023/02/03 01:18:45;;;;;;;0.13;0.13;;;;;;;8.47;100.00;100904.53;4935311;29;20036;-66
2023/02/03 01:21:14;;;;;;;0.10;0.10;;;;;;;8.69;100.00;100901.38;4926376;29;20086;-67
2023/02/03 01:23:39;;;;;;;0.20;0.20;;;;;;;8.77;100.00;100880.91;4950098;28;20044;-67
2023/02/03 01:26:07;;;;;;;0.20;0.20;;;;;;;8.89;100.00;100883.59;4927295;29;20043;-67
2023/02/03 01:28:32;;;;;;;0.38;0.38;;;;;;;8.76;100.00;100874.78;4913089;29;20075;-67
2023/02/03 01:31:09;;;;;;;0.10;0.10;;;;;;;8.83;100.00;100861.56;4915376;29;20024;-66
2023/02/03 01:33:34;;;;;;;0.20;0.20;;;;;;;8.76;100.00;100853.31;4913037;29;20187;-66
2023/02/03 01:36:01;;;;;;;0.13;0.13;;;;;;;8.94;100.00;100854.59;4915274;29;20036;-67
2023/02/03 01:38:26;;;;;;;0.10;0.10;;;;;;;8.65;100.00;100854.09;4928449;29;20059;-67
2023/02/03 01:40:52;;;;;;;0.10;0.10;;;;;;;8.91;100.00;100841.06;4942191;29;20048;-67
2023/02/03 01:43:30;;;;;;;0.20;0.20;;;;;;;8.80;100.00;100845.34;4927894;28;20079;-67
2023/02/03 01:46:01;;;;;;;0.20;0.20;;;;;;;8.86;100.00;100826.00;4929365;29;20036;-66
2023/02/03 01:48:30;;;;;;;0.30;0.30;;;;;;;9.15;100.00;100806.09;4914616;29;20042;-67
2023/02/03 01:50:56;;;;;;;0.38;0.38;;;;;;;9.12;100.00;100808.69;4903144;29;20044;-66
2023/02/03 01:53:22;;;;;;;0.32;0.32;;;;;;;8.84;100.00;100800.59;4924930;29;20450;-67
2023/02/03 01:55:49;;;;;;;0.45;0.45;;;;;;;8.88;100.00;100785.38;4925535;29;20548;-66
2023/02/03 01:58:24;;;;;;;0.32;0.32;;;;;;;8.99;100.00;100794.50;4929926;29;20320;-66
2023/02/03 02:00:51;;;;;;;0.57;0.57;;;;;;;9.02;100.00;100805.34;4914304;29;20146;-66
2023/02/03 02:03:22;;;;;;;0.38;0.38;;;;;;;9.00;100.00;100807.59;4933126;28;20136;-66
2023/02/03 02:05:55;;;;;;;0.25;0.25;;;;;;;9.07;100.00;100815.88;4931562;29;20048;-66
2023/02/03 02:08:22;;;;;;;0.17;0.17;;;;;;;9.03;100.00;100806.94;4929935;29;20429;-67
2023/02/03 02:10:49;;;;;;;0.20;0.20;;;;;;;8.86;100.00;100803.72;4913761;29;20393;-66
2023/02/03 02:13:18;;;;;;;0.10;0.10;;;;;;;9.00;100.00;100796.09;4898159;29;20032;-67
2023/02/03 02:16:23;;;;;;;0.10;0.10;;;;;;;9.02;100.00;100797.28;4927693;29;20517;-66
2023/02/03 02:19:07;;;;;;;0.10;0.10;;;;;;;8.96;100.00;100798.66;4942236;29;20043;-66
2023/02/03 02:21:54;;;;;;;0.10;0.10;;;;;;;8.80;100.00;100811.22;4928250;29;20559;-67
2023/02/03 02:24:31;;;;;;;0.10;0.10;;;;;;;9.04;100.00;100808.47;4931013;29;20551;-67
2023/02/03 02:27:21;;;;;;;0.30;0.22;;;;;;;9.08;100.00;100801.31;4914186;29;20040;-67
2023/02/03 02:30:15;;;;;;;0.00;0.00;;;;;;;9.24;100.00;100792.50;4920866;29;20036;-67
2023/02/03 02:33:01;;;;;;;0.10;0.10;;;;;;;9.46;100.00;100782.03;4924223;29;20039;-67
2023/02/03 02:35:32;;;;;;;0.10;0.10;;;;;;;9.05;100.00;100788.56;4934120;29;20098;-67
2023/02/03 02:38:08;;;;;;;0.10;0.10;;;;;;;9.31;100.00;100781.97;4938687;29;20509;-67
2023/02/03 02:40:55;;;;;;;0.10;0.10;;;;;;;9.41;100.00;100770.72;4939739;29;20135;-67
2023/02/03 02:43:58;;;;;;;0.20;0.20;;;;;;;9.53;100.00;100784.09;4932947;29;20122;-67
2023/02/03 02:46:33;;;;;;;0.10;0.10;;;;;;;9.45;100.00;100775.06;4930568;29;20082;-67
2023/02/03 02:49:13;;;;;;;0.40;0.40;;;;;;;9.32;100.00;100762.03;4944741;29;20042;-67
2023/02/03 02:51:44;;;;;;;0.63;0.63;;;;;;;9.08;100.00;100777.13;4931891;29;20119;-67
2023/02/03 02:54:16;;;;;;;0.20;0.20;;;;;;;8.86;100.00;100774.97;4897775;29;20036;-67
2023/02/03 02:56:42;;;;;;;;;;;;;;;9.18;100.00;100777.75;4929792;29;20044;-67
2023/02/03 02:59:08;;;;;;;0.10;0.10;;;;;;;9.13;100.00;100778.81;4943715;28;19967;-67
2023/02/03 03:01:34;;;;;;;0.57;0.20;;;;;;;9.05;100.00;100785.09;4928681;29;20087;-67
2023/02/03 03:04:05;;;;;;;0.20;0.20;;;;;;;9.19;100.00;100764.00;4921364;29;20035;-67
2023/02/03 03:06:42;;;;;;;0.10;0.10;;;;;;;9.39;100.00;100743.44;4926369;29;20127;-67
2023/02/03 03:09:13;;;;;;;0.13;0.13;;;;;;;9.41;100.00;100743.84;4925150;29;20028;-67
2023/02/03 03:11:53;;;;;;;0.10;0.10;;;;;;;9.21;100.00;100751.00;4928486;29;20147;-67
2023/02/03 03:14:22;;;;;;;0.10;0.10;;;;;;;9.22;100.00;100757.94;4920008;29;20119;-67
2023/02/03 03:16:53;;;;;;;0.10;0.10;;;;;;;9.42;100.00;100737.34;4925600;29;20028;-67
2023/02/03 03:19:23;;;;;;;0.20;0.20;;;;;;;9.51;100.00;100743.34;4914296;29;20036;-67
2023/02/03 03:22:02;;;;;;;0.10;0.10;;;;;;;9.49;100.00;100716.03;4932867;29;20040;-67
2023/02/03 03:24:38;;;;;;;0.20;0.20;;;;;;;9.38;100.00;100736.47;4920328;29;20040;-67
2023/02/03 03:27:11;;;;;;;0.10;0.10;;;;;;;9.39;100.00;100711.19;4925648;29;20123;-67
2023/02/03 03:29:45;;;;;;;0.30;0.30;;;;;;;9.09;100.00;100711.56;4913087;29;20079;-67
2023/02/03 03:32:11;;;;;;;0.10;0.10;;;;;;;9.23;100.00;100707.69;4918164;29;20036;-67
2023/02/03 03:34:36;;;;;;;0.10;0.10;;;;;;;9.38;100.00;100713.06;4913541;29;20031;-67
2023/02/03 03:37:07;;;;;;;0.10;0.10;;;;;;;9.27;100.00;100695.88;4912772;29;20040;-67
2023/02/03 03:39:53;;;;;;;0.20;0.20;;;;;;;8.85;100.00;100694.75;4914606;29;20446;-67
2023/02/03 03:42:28;;;;;;;0.63;0.63;;;;;;;9.09;100.00;100686.59;4913852;29;20084;-67
2023/02/03 03:45:02;;;;;;;0.10;0.10;;;;;;;9.42;100.00;100678.22;4929988;29;20432;-67
2023/02/03 03:47:39;;;;;;;0.10;0.10;;;;;;;9.66;100.00;100672.66;4912948;29;20067;-67
2023/02/03 03:50:10;;;;;;;0.10;0.10;;;;;;;9.45;100.00;100690.97;4910579;29;20036;-67
2023/02/03 03:52:37;;;;;;;0.40;0.40;;;;;;;9.16;100.00;100685.97;4912385;29;20131;-67
2023/02/03 03:55:07;;;;;;;0.10;0.10;;;;;;;9.32;100.00;100684.91;4939844;29;20024;-65
2023/02/03 03:57:38;;;;;;;0.10;0.10;;;;;;;9.49;100.00;100681.06;4951167;28;20092;-66
2023/02/03 04:00:22;;;;;;;0.10;0.10;;;;;;;8.95;100.00;100688.88;4918011;29;20126;-66
2023/02/03 04:02:51;;;;;;;0.25;0.25;;;;;;;9.04;100.00;100678.75;4920035;29;20040;-67
2023/02/03 04:05:18;;;;;;;0.10;0.10;;;;;;;9.08;100.00;100683.13;4928403;29;20040;-66
2023/02/03 04:07:46;;;;;;;0.10;0.10;;;;;;;9.09;100.00;100678.53;4910751;29;20122;-67
2023/02/03 04:10:26;;;;;;;0.10;0.10;;;;;;;9.11;100.00;100673.59;4928501;29;20468;-67
2023/02/03 04:12:52;;;;;;;0.10;0.10;;;;;;;9.03;100.00;100675.31;4918037;29;20127;-66
2023/02/03 04:15:17;;;;;;;0.52;0.20;;;;;;;9.10;100.00;100666.66;4926836;29;20118;-67
2023/02/03 04:17:43;;;;;;;0.40;0.40;;;;;;;9.13;100.00;100660.59;4929112;29;20040;-67
2023/02/03 04:20:09;;;;;;;0.20;0.20;;;;;;;9.32;100.00;100654.53;4941034;29;20036;-67
2023/02/03 04:22:34;;;;;;;0.10;0.10;;;;;;;9.03;100.00;100656.50;4914030;29;20043;-67
2023/02/03 04:25:00;;;;;;;0.10;0.10;;;;;;;9.31;100.00;100643.00;4916403;29;20437;-67
2023/02/03 04:27:25;;;;;;;0.10;0.10;;;;;;;9.26;100.00;100640.59;4915554;29;20508;-67
2023/02/03 04:29:51;;;;;;;0.20;0.20;;;;;;;8.95;100.00;100625.22;4916003;29;20541;-67
2023/02/03 04:32:16;;;;;;;0.20;0.20;;;;;;;9.03;100.00;100643.09;4915936;29;20036;-67
2023/02/03 04:34:42;;;;;;;0.52;0.52;;;;;;;8.89;100.00;100625.81;4923111;29;20036;-67
2023/02/03 04:37:07;;;;;;;0.10;0.10;;;;;;;9.21;100.00;100626.63;4916951;29;20103;-67
2023/02/03 04:39:33;;;;;;;0.13;0.13;;;;;;;9.02;100.00;100616.53;4914774;29;20094;-67
2023/02/03 04:41:58;;;;;;;0.10;0.10;;;;;;;8.97;100.00;100614.91;4933198;29;20040;-67
2023/02/03 04:44:23;;;;;;;0.50;0.30;;;;;;;8.90;100.00;100606.66;4926546;29;20058;-67
2023/02/03 04:46:49;;;;;;;0.10;0.10;;;;;;;8.76;100.00;100605.50;4918929;29;20060;-67
2023/02/03 04:49:16;;;;;;;0.10;0.10;;;;;;;9.05;100.00;100622.03;4929658;29;20067;-67
2023/02/03 04:51:43;;;;;;;0.10;0.10;;;;;;;9.34;100.00;100617.38;4913663;29;20125;-67
2023/02/03 04:54:09;;;;;;;0.20;0.20;;;;;;;9.17;100.00;100631.94;4912512;29;20036;-67
2023/02/03 04:56:34;;;;;;;0.20;0.15;;;;;;;9.35;100.00;100632.38;4914817;29;20064;-67
2023/02/03 04:59:00;;;;;;;0.10;0.10;;;;;;;9.12;100.00;100623.34;4913082;29;20086;-67
2023/02/03 05:01:25;;;;;;;0.30;0.30;;;;;;;9.07;100.00;100621.69;4929583;29;20040;-67
2023/02/03 05:03:51;;;;;;;0.10;0.10;;;;;;;9.32;100.00;100617.72;4918307;29;20036;-67
2023/02/03 05:06:16;;;;;;;1.08;1.02;;;;;;;9.48;100.00;100607.75;4922156;29;20384;-67
2023/02/03 05:08:42;;;;;;;1.65;1.55;;;;;;;9.29;100.00;100601.50;4916558;29;20216;-67
2023/02/03 05:11:07;;;;;;;0.10;0.10;;;;;;;9.46;100.00;100596.56;4917675;29;20042;-67
2023/02/03 05:13:32;;;;;;;0.00;0.00;;;;;;;9.24;100.00;100577.56;4918343;29;20103;-67
2023/02/03 05:15:58;;;;;;;0.10;0.10;;;;;;;9.09;100.00;100588.00;4914493;29;20475;-67
2023/02/03 05:18:23;;;;;;;0.35;0.35;;;;;;;9.01;100.00;100570.13;4931110;29;20044;-67
2023/02/03 05:20:52;;;;;;;0.03;0.03;;;;;;;9.20;100.00;100563.28;4916614;29;20120;-67
2023/02/03 05:23:17;;;;;;;0.10;0.10;;;;;;;9.07;100.00;100573.34;4914418;29;20573;-67
2023/02/03 05:25:43;;;;;;;0.28;0.28;;;;;;;9.17;100.00;100553.22;4918660;29;20127;-67
2023/02/03 05:28:08;;;;;;;0.38;0.38;;;;;;;9.13;100.00;100544.31;4916242;29;20505;-67
2023/02/03 05:30:34;;;;;;;0.28;0.28;;;;;;;9.33;100.00;100549.41;4939492;29;20042;-67
2023/02/03 05:32:59;;;;;;;0.10;0.10;;;;;;;9.33;100.00;100554.00;4916594;29;20044;-67
2023/02/03 05:35:25;;;;;;;0.20;0.20;;;;;;;9.33;100.00;100554.00;4920776;29;20140;-67
2023/02/03 05:37:50;;;;;;;0.10;0.10;;;;;;;9.55;100.00;100550.66;4916297;29;20032;-67
2023/02/03 05:42:59;;;;;;;0.10;0.10;;;;;;;9.14;100.00;100554.69;4916105;29;20036;-67
2023/02/03 05:45:25;;;;;;;0.10;0.10;;;;;;;9.14;100.00;100543.94;4910450;29;20106;-67
2023/02/03 05:47:50;;;;;;;0.47;0.20;;;;;;;9.04;100.00;100547.16;4916355;29;20040;-67
2023/02/03 05:50:16;;;;;;;0.10;0.10;;;;;;;9.12;100.00;100558.88;4912396;29;20024;-67
2023/02/03 05:52:41;;;;;;;0.45;0.45;;;;;;;8.82;100.00;100543.19;4898401;29;20134;-67
2023/02/03 05:55:07;;;;;;;0.00;0.00;;;;;;;9.12;100.00;100526.66;4908617;29;20036;-67
2023/02/03 05:57:32;;;;;;;0.00;0.00;;;;;;;8.77;100.00;100543.41;4912929;29;20522;-67
2023/02/03 05:59:57;;;;;;;0.10;0.10;;;;;;;9.00;100.00;100538.25;4918421;29;20628;-67
2023/02/03 06:02:23;;;;;;;0.10;0.10;;;;;;;9.19;100.00;100532.19;4928923;29;20035;-67
2023/02/03 06:04:48;;;;;;;0.10;0.10;;;;;;;9.34;100.00;100534.84;4921506;29;20064;-67
2023/02/03 06:07:14;;;;;;;0.10;0.10;;;;;;;9.38;100.00;100545.66;4911573;29;20075;-67
2023/02/03 06:09:39;;;;;;;0.10;0.10;;;;;;;9.57;100.00;100537.66;4912824;29;20064;-67
2023/02/03 06:12:05;;;;;;;0.10;0.10;;;;;;;9.40;100.00;100530.75;4909726;29;20395;-67
2023/02/03 06:14:30;;;;;;;0.20;0.20;;;;;;;9.41;100.00;100528.84;4909703;29;20032;-67
2023/02/03 06:16:55;;;;;;;0.10;0.10;;;;;;;9.31;100.00;100524.03;4920254;29;20075;-67
2023/02/03 06:19:21;;;;;;;0.10;0.10;;;;;;;9.03;100.00;100514.16;4907981;29;20031;-67
2023/02/03 06:21:46;;;;;;;0.10;0.10;;;;;;;9.25;100.00;100503.91;4914090;29;20043;-67
2023/02/03 06:24:12;;;;;;;0.10;0.10;;;;;;;9.22;100.00;100493.84;4916277;29;20040;-67
2023/02/03 06:26:37;;;;;;;1.30;1.20;;;;;;;9.24;100.00;100499.66;4914367;29;20103;-67
2023/02/03 06:29:03;;;;;;;0.10;0.10;;;;;;;9.30;100.00;100474.88;4915631;29;20043;-67
2023/02/03 06:31:28;;;;;;;0.10;0.10;;;;;;;9.34;100.00;100493.75;4916105;29;20062;-67
2023/02/03 06:33:56;;;;;;;0.10;0.10;;;;;;;9.35;100.00;100479.97;4917617;29;20027;-67
2023/02/03 06:36:22;;;;;;;0.00;0.00;;;;;;;9.41;100.00;100478.56;4914032;29;20039;-67
2023/02/03 06:38:48;;;;;;;0.10;0.10;;;;;;;9.09;100.00;100487.81;4912603;29;20506;-67
2023/02/03 06:41:13;;;;;;;0.10;0.10;;;;;;;9.19;100.00;100475.75;4905611;29;20048;-67
2023/02/03 06:43:38;;;;;;;0.13;0.10;;;;;;;9.57;100.00;100475.84;4913287;29;20036;-67
2023/02/03 06:46:04;;;;;;;0.00;0.00;;;;;;;9.51;100.00;100477.22;4911408;29;20390;-67
2023/02/03 06:48:29;;;;;;;0.10;0.10;;;;;;;9.53;100.00;100456.16;4943946;28;20486;-68
2023/02/03 06:50:55;;;;;;;0.10;0.10;;;;;;;9.41;100.00;100475.88;4910976;29;20036;-67
2023/02/03 06:53:20;;;;;;;0.10;0.10;;;;;;;9.56;100.00;100466.22;4919926;29;20027;-67
2023/02/03 06:55:46;;;;;;;0.10;0.10;;;;;;;9.58;100.00;100469.34;4929705;29;20083;-67
2023/02/03 06:58:12;;;;;;;0.10;0.10;;;;;;;9.61;100.00;100464.03;4911217;29;20043;-67
2023/02/03 07:00:38;;;;;;;0.10;0.10;;;;;;;9.57;100.00;100462.38;4914119;29;20043;-67
2023/02/03 07:03:03;;;;;;;0.10;0.10;;;;;;;9.32;100.00;100469.94;4917744;29;20484;-68
2023/02/03 07:05:29;;;;;;;0.20;0.20;;;;;;;9.26;100.00;100463.25;4918999;29;20064;-67
2023/02/03 07:07:54;;;;;;;0.10;0.10;;;;;;;9.33;100.00;100458.03;4931503;29;20058;-67
2023/02/03 07:10:20;;;;;;;0.05;0.05;;;;;;;9.54;100.00;100446.97;4930487;29;20378;-68
2023/02/03 07:12:46;;;;;;;0.10;0.10;;;;;;;9.17;100.00;100451.94;4917912;29;20027;-67
2023/02/03 07:15:12;;;;;;;0.10;0.10;;;;;;;9.17;100.00;100451.16;4911268;29;20044;-70
2023/02/03 07:17:38;;;;;;;0.00;0.00;;;;;;;9.19;100.00;100456.94;4902039;29;20039;-67
2023/02/03 07:20:04;;;;;;;0.10;0.10;;;;;;;9.36;100.00;100422.41;4916080;29;20043;-67
2023/02/03 07:22:29;;;;;;;0.32;0.25;;;;;;;9.65;100.00;100437.22;4917910;29;20778;-67
2023/02/03 07:24:55;;;;;;;0.08;0.08;;;;;;;9.54;100.00;100434.28;4911220;29;20130;-67
2023/02/03 07:27:20;;;;;;;0.10;0.10;;;;;;;9.36;100.00;100429.69;4916249;29;20042;-67
2023/02/03 07:29:46;;;;;;;0.10;0.10;;;;;;;9.47;100.00;100431.47;4910038;29;20421;-67
2023/02/03 07:32:11;;;;;;;0.10;0.10;;;;;;;9.46;100.00;100429.94;4914805;29;20051;-67
2023/02/03 07:34:36;;;;;;;0.65;0.65;;;;;;;9.52;100.00;100425.84;4920796;29;20058;-67
2023/02/03 07:37:02;;;;;;;0.00;0.00;;;;;;;9.62;100.00;100436.00;4911437;29;20504;-67
2023/02/03 07:39:27;;;;;;;0.10;0.10;;;;;;;9.27;100.00;100445.25;4921127;29;20115;-67
2023/02/03 07:41:53;;;;;;;0.10;0.10;;;;;;;9.50;100.00;100435.38;4918382;29;20036;-67
2023/02/03 07:44:20;;;;;;;0.15;0.15;;;;;;;9.61;100.00;100422.91;4921186;29;20118;-67
2023/02/03 07:46:46;;;;;;;0.10;0.10;;;;;;;9.45;100.00;100432.94;4913915;29;20124;-67
2023/02/03 07:49:12;;;;;;;0.20;0.20;;;;;;;9.61;100.00;100447.91;4910617;29;20040;-67
2023/02/03 07:51:58;;;;;;;0.10;0.10;;;;;;;9.77;100.00;100429.00;4908730;29;20029;-67
2023/02/03 07:54:23;;;;;;;0.68;0.57;;;;;;;9.50;100.00;100432.69;4839343;29;20507;-67
2023/02/03 07:56:48;;;;;;;0.10;0.10;;;;;;;9.57;100.00;100433.59;4834876;29;20058;-67
2023/02/03 07:59:15;;;;;;;0.63;0.45;;;;;;;9.41;100.00;100432.09;4847259;29;20054;-67
2023/02/03 08:01:41;;;;;;;0.10;0.10;;;;;;;9.33;100.00;100430.41;4836352;29;20090;-67
2023/02/03 08:04:07;;;;;;;0.10;0.10;;;;;;;9.45;100.00;100435.63;4828991;29;20614;-67
2023/02/03 08:06:33;;;;;;;0.17;0.17;;;;;;;9.17;100.00;100435.03;4837838;29;20076;-67
2023/02/03 08:09:01;;;;;;;0.38;0.30;;;;;;;9.46;100.00;100450.63;4839913;29;20046;-67
2023/02/03 08:11:27;;;;;;;0.05;0.05;;;;;;;9.45;100.00;100454.44;4839483;29;20034;-67
2023/02/03 08:13:52;;;;;;;0.50;0.50;;;;;;;9.16;100.00;100463.00;4823722;29;20106;-67
2023/02/03 08:16:18;;;;;;;0.10;0.10;;;;;;;9.40;100.00;100476.22;4826287;29;20581;-67
2023/02/03 08:18:43;;;;;;;0.20;0.20;;;;;;;9.13;100.00;100507.47;4836782;29;20053;-67
2023/02/03 08:21:09;;;;;;;0.30;0.30;;;;;;;9.29;100.00;100534.34;4828268;29;20568;-67
2023/02/03 08:23:35;;;;;;;0.10;0.10;;;;;;;9.18;100.00;100546.72;4829745;29;20038;-66
2023/02/03 08:26:01;;;;;;;0.00;0.00;;;;;;;9.07;100.00;100523.09;4830627;29;20147;-67
2023/02/03 08:28:29;;;;;;;0.30;0.30;;;;;;;8.89;100.00;100543.34;4818765;29;20050;-66
2023/02/03 08:30:56;;;;;;;0.00;0.00;;;;;;;9.05;100.00;100541.47;4854836;29;20045;-66
2023/02/03 08:33:22;;;;;;;0.10;0.10;;;;;;;9.23;100.00;100527.66;4921305;29;20115;-67
2023/02/03 08:35:49;;;;;;;0.80;0.80;;;;;;;9.35;100.00;100524.88;4908950;29;20584;-66
2023/02/03 08:38:14;;;;;;;0.10;0.10;;;;;;;9.33;100.00;100535.19;4916184;29;20032;-66
2023/02/03 08:40:40;;;;;;;0.10;0.10;;;;;;;9.38;100.00;100518.78;4915136;29;20397;-66
2023/02/03 08:43:05;;;;;;;0.17;0.17;;;;;;;9.06;100.00;100532.25;4920194;29;20028;-66
2023/02/03 08:45:31;;;;;;;0.25;0.25;;;;;;;9.03;100.00;100534.88;4936539;29;20066;-65
2023/02/03 08:47:56;;;;;;;1.75;1.65;;;;;;;8.99;100.00;100548.22;4913408;29;20043;-66
2023/02/03 08:50:22;;;;;;;0.10;0.10;;;;;;;8.83;100.00;100552.00;4909610;29;20028;-66
2023/02/03 08:52:47;;;;;;;0.00;0.00;;;;;;;8.85;100.00;100541.69;4912810;29;20441;-67
2023/02/03 08:55:13;;;;;;;0.35;0.35;;;;;;;8.50;100.00;100546.13;4917305;29;20051;-66
2023/02/03 08:57:40;;;;;;;0.10;0.10;;;;;;;8.80;100.00;100548.13;4910528;29;20042;-66
2023/02/03 09:00:07;;;;;;;0.10;0.10;;;;;;;8.93;100.00;100549.59;4917550;29;20027;-67
2023/02/03 09:02:33;;;;;;;0.30;0.30;;;;;;;8.69;100.00;100544.34;4916206;29;20167;-66
2023/02/03 09:04:59;;;;;;;0.50;0.50;;;;;;;8.86;100.00;100538.69;4936454;29;20163;-66
2023/02/03 09:07:25;;;;;;;0.17;0.17;;;;;;;8.89;100.00;100535.28;4942404;29;20042;-66
2023/02/03 09:09:51;;;;;;;0.10;0.10;;;;;;;8.88;100.00;100531.03;4919913;29;20039;-66
2023/02/03 09:12:16;;;;;;;0.20;0.20;;;;;;;8.93;100.00;100530.78;4937811;29;20071;-67
2023/02/03 09:14:42;;;;;;;0.20;0.15;;;;;;;8.90;100.00;100541.44;4915955;29;20032;-67
2023/02/03 09:17:09;;;;;;;1.13;1.05;;;;;;;8.75;100.00;100526.88;4931279;29;20036;-67
2023/02/03 09:19:34;;;;;;;0.15;0.15;;;;;;;8.72;100.00;100542.91;4933155;29;20048;-67
2023/02/03 09:22:00;;;;;;;1.92;1.05;;;;;;;8.57;100.00;100552.50;4946547;29;20040;-67
2023/02/03 09:24:26;;;;;;;2.15;1.95;;;;;;;8.72;100.00;100559.78;4916097;29;20420;-67
2023/02/03 09:26:51;;;;;;;0.40;0.40;;;;;;;8.87;100.00;100550.97;4926883;29;20040;-67
2023/02/03 09:29:18;;;;;;;0.28;0.25;;;;;;;8.72;100.00;100556.31;4915505;29;20039;-67
2023/02/03 09:31:45;;;;;;;1.77;1.17;;;;;;;8.81;100.00;100538.13;4923398;29;20428;-67
2023/02/03 09:34:11;;;;;;;0.10;0.10;;;;;;;9.03;100.00;100538.34;4919322;29;20035;-67
2023/02/03 09:36:36;;;;;;;2.72;1.25;;;;;;;9.17;100.00;100550.53;4914085;29;20075;-67
2023/02/03 09:39:02;;;;;;;3.83;0.85;;;;;;;9.02;100.00;100535.97;4912259;29;20484;-67
2023/02/03 09:41:47;;;;;;;0.10;0.10;;;;;;;8.80;100.00;100547.31;4916038;29;20035;-67
2023/02/03 09:44:21;;;;;;;0.10;0.10;;;;;;;8.88;100.00;100562.50;4917251;29;20446;-67
2023/02/03 09:46:53;;;;;;;0.68;0.68;;;;;;;8.99;100.00;100572.38;4915738;29;20493;-67
2023/02/03 09:49:27;;;;;;;3.72;0.75;;;;;;;8.81;100.00;100571.13;4926938;29;20051;-66
2023/02/03 09:52:14;;;;;;;0.20;0.20;;;;;;;8.80;100.00;100566.91;4921060;29;20383;-67
2023/02/03 09:55:01;;;;;;;0.40;0.40;;;;;;;8.86;100.00;100580.84;4913030;29;20035;-67
2023/02/03 09:57:30;;;;;;;0.03;0.03;;;;;;;9.20;100.00;100588.25;4925200;29;20091;-67
2023/02/03 09:59:58;;;;;;;0.10;0.10;;;;;;;9.24;98.94;100596.38;4928303;29;20180;-68
2023/02/03 10:02:32;;;;;;;1.35;1.25;;;;;;;9.07;98.32;100592.13;4915098;29;20032;-68
2023/02/03 10:05:16;;;;;;;0.20;0.20;;;;;;;8.99;99.20;100606.50;4914367;29;20183;-68
2023/02/03 10:07:44;;;;;;;1.42;1.38;;;;;;;8.86;98.59;100605.03;4908563;29;20044;-67
2023/02/03 10:10:33;;;;;;;0.10;0.10;;;;;;;9.02;98.86;100608.50;4915024;29;20114;-67
2023/02/03 10:13:33;;;;;;;0.00;0.00;;;;;;;9.36;96.02;100613.22;4911204;29;20067;-67
2023/02/03 10:16:34;;;;;;;0.43;0.43;;;;;;;9.14;97.78;100621.84;4927618;29;20051;-67
2023/02/03 10:19:06;;;;;;;0.10;0.10;;;;;;;8.94;97.10;100618.28;4914680;29;20040;-67
2023/02/03 10:21:40;;;;;;;0.20;0.20;;;;;;;9.03;97.86;100626.97;4921591;29;20040;-67
2023/02/03 10:24:13;;;;;;;0.20;0.20;;;;;;;9.39;95.54;100630.56;4918467;29;20042;-67
2023/02/03 10:26:39;;;;;;;0.25;0.25;;;;;;;9.09;98.31;100638.25;4916229;29;20063;-67
2023/02/03 10:29:26;;;;;;;0.30;0.30;;;;;;;9.48;97.21;100637.31;4917026;29;20429;-68
2023/02/03 10:31:54;;;;;;;0.30;0.30;;;;;;;9.35;97.65;100648.50;4929423;29;20178;-67
2023/02/03 10:34:21;;;;;;;2.42;2.22;;;;;;;9.15;98.57;100649.50;4920353;29;20067;-67
2023/02/03 10:37:12;;;;;;;1.55;1.00;;;;;;;9.28;98.29;100661.72;4920538;29;20046;-67
2023/02/03 10:39:45;;;;;;;0.00;0.00;;;;;;;9.10;98.35;100659.38;4928179;29;20032;-67
2023/02/03 10:42:12;;;;;;;0.10;0.10;;;;;;;9.38;97.00;100640.50;4909653;29;20482;-67
2023/02/03 10:44:56;;;;;;;0.20;0.20;;;;;;;9.12;97.62;100660.94;4916194;29;20413;-67
2023/02/03 10:47:38;;;;;;;0.22;0.22;;;;;;;9.32;96.89;100657.22;4913406;29;20056;-67
2023/02/03 10:50:06;;;;;;;;;;;;;;;9.27;95.17;100641.38;4911514;29;20363;-67
2023/02/03 10:52:34;;;;;;;0.68;0.68;;;;;;;9.13;95.12;100652.53;4916712;29;19915;-67
2023/02/03 10:55:07;;;;;;;0.40;0.40;;;;;;;9.10;94.64;100661.28;4917750;29;20079;-67
2023/02/03 10:57:38;;;;;;;0.20;0.20;;;;;;;9.10;94.01;100645.94;4943950;28;20594;-67
2023/02/03 11:00:28;;;;;;;0.10;0.10;;;;;;;9.00;93.65;100672.53;4918162;29;20409;-67
2023/02/03 11:03:01;;;;;;;2.30;0.65;;;;;;;9.14;94.28;100685.56;4913045;29;20048;-67
2023/02/03 11:05:26;;;;;;;0.90;0.90;;;;;;;9.26;93.78;100675.53;4916981;29;20464;-67
2023/02/03 11:07:52;;;;;;;0.90;0.90;;;;;;;9.09;93.61;100695.44;4919393;29;20036;-67
2023/02/03 11:10:39;;;;;;;4.20;1.10;;;;;;;9.04;93.06;100694.88;4920929;29;20032;-67
2023/02/03 11:13:11;;;;;;;0.10;0.10;;;;;;;9.34;92.14;100697.97;4917788;29;20052;-67
2023/02/03 11:15:36;;;;;;;1.17;0.80;;;;;;;9.19;91.89;100696.84;4912197;29;20044;-67
2023/02/03 11:18:02;;;;;;;0.55;0.55;;;;;;;9.18;92.46;100692.56;4920338;29;20114;-67
2023/02/03 11:20:28;;;;;;;0.10;0.10;;;;;;;9.26;93.03;100683.56;4919528;29;20091;-67
2023/02/03 11:22:54;;;;;;;0.10;0.10;;;;;;;9.15;92.99;100685.22;4918228;29;20081;-67
2023/02/03 11:25:25;;;;;;;0.20;0.20;;;;;;;9.16;93.33;100691.34;4917667;29;20516;-68
2023/02/03 11:27:53;;;;;;;1.25;1.02;;;;;;;9.16;93.19;100676.03;4921625;29;20043;-67
2023/02/03 11:30:23;;;;;;;1.38;1.27;;;;;;;9.09;92.24;100691.97;4919865;29;20051;-68
2023/02/03 11:32:50;;;;;;;0.33;0.33;;;;;;;9.04;92.78;100689.50;4916516;29;20032;-67
2023/02/03 11:35:24;;;;;;;0.30;0.25;;;;;;;9.34;91.80;100696.06;4934959;29;20527;-67
2023/02/03 11:37:50;;;;;;;0.10;0.10;;;;;;;9.35;92.29;100696.88;4917840;29;20043;-71